sensor_id;sensor_type;location;lat;lon;timestamp;temperature;humidity
20590;DHT22;10453;50.810;12.540;2023-07-20T00:00:07;15.50;99.90
20590;DHT22;10453;50.810;12.540;2023-07-20T00:04:28;15.50;99.90
20590;DHT22;10453;50.810;12.540;2023-07-20T00:08:46;15.60;99.90
20590;DHT22;10453;50.810;12.540;2023-07-20T00:13:03;15.60;99.90
20590;DHT22;10453;50.810;12.540;2023-07-20T00:17:20;15.70;99.90
20590;DHT22;10453;50.810;12.540;2023-07-20T00:21:38;15.60;99.90
20590;DHT22;10453;50.810;12.540;2023-07-20T00:25:57;15.60;99.90
20590;DHT22;10453;50.810;12.540;2023-07-20T00:30:14;15.50;99.90
20590;DHT22;10453;50.810;12.540;2023-07-20T00:34:32;15.50;99.90
20590;DHT22;10453;50.810;12.540;2023-07-20T00:38:50;15.40;99.90
20590;DHT22;10453;50.810;12.540;2023-07-20T00:43:08;15.40;99.90
20590;DHT22;10453;50.810;12.540;2023-07-20T00:47:25;15.40;99.90
20590;DHT22;10453;50.810;12.540;2023-07-20T00:51:43;15.40;99.90
20590;DHT22;10453;50.810;12.540;2023-07-20T00:56:01;15.30;99.90
20590;DHT22;10453;50.810;12.540;2023-07-20T01:00:18;15.30;99.90
20590;DHT22;10453;50.810;12.540;2023-07-20T01:04:36;15.20;99.90
20590;DHT22;10453;50.810;12.540;2023-07-20T01:09:07;15.20;99.90
20590;DHT22;10453;50.810;12.540;2023-07-20T01:13:26;15.00;99.90
20590;DHT22;10453;50.810;12.540;2023-07-20T01:17:44;15.00;99.90
20590;DHT22;10453;50.810;12.540;2023-07-20T01:26:51;14.80;99.90
20590;DHT22;10453;50.810;12.540;2023-07-20T01:31:30;14.70;99.90
20590;DHT22;10453;50.810;12.540;2023-07-20T01:35:59;14.60;99.90
20590;DHT22;10453;50.810;12.540;2023-07-20T01:40:18;14.50;99.90
20590;DHT22;10453;50.810;12.540;2023-07-20T01:44:37;14.50;99.90
20590;DHT22;10453;50.810;12.540;2023-07-20T01:48:54;14.30;99.90
20590;DHT22;10453;50.810;12.540;2023-07-20T01:53:12;14.20;99.90
20590;DHT22;10453;50.810;12.540;2023-07-20T01:57:29;14.10;99.90
20590;DHT22;10453;50.810;12.540;2023-07-20T02:01:46;14.00;99.90
20590;DHT22;10453;50.810;12.540;2023-07-20T02:06:04;13.90;99.90
20590;DHT22;10453;50.810;12.540;2023-07-20T02:10:21;13.80;99.90
20590;DHT22;10453;50.810;12.540;2023-07-20T02:14:39;13.70;99.90
20590;DHT22;10453;50.810;12.540;2023-07-20T02:18:56;13.70;99.90
20590;DHT22;10453;50.810;12.540;2023-07-20T02:23:13;13.60;99.90
20590;DHT22;10453;50.810;12.540;2023-07-20T02:27:31;13.60;99.90
20590;DHT22;10453;50.810;12.540;2023-07-20T02:31:48;13.60;99.90
20590;DHT22;10453;50.810;12.540;2023-07-20T02:36:05;13.60;99.90
20590;DHT22;10453;50.810;12.540;2023-07-20T02:40:23;13.60;99.90
20590;DHT22;10453;50.810;12.540;2023-07-20T02:44:40;13.50;99.90
20590;DHT22;10453;50.810;12.540;2023-07-20T02:48:57;13.50;99.90
20590;DHT22;10453;50.810;12.540;2023-07-20T02:53:14;13.40;99.90
20590;DHT22;10453;50.810;12.540;2023-07-20T02:57:32;13.40;99.90
20590;DHT22;10453;50.810;12.540;2023-07-20T03:01:49;13.30;99.90
20590;DHT22;10453;50.810;12.540;2023-07-20T03:06:06;13.40;99.90
20590;DHT22;10453;50.810;12.540;2023-07-20T03:10:26;13.30;99.90
20590;DHT22;10453;50.810;12.540;2023-07-20T03:14:43;13.30;99.90
20590;DHT22;10453;50.810;12.540;2023-07-20T03:19:00;13.20;99.90
20590;DHT22;10453;50.810;12.540;2023-07-20T03:23:17;13.20;99.90
20590;DHT22;10453;50.810;12.540;2023-07-20T03:27:35;13.20;99.90
20590;DHT22;10453;50.810;12.540;2023-07-20T03:31:52;13.30;99.90
20590;DHT22;10453;50.810;12.540;2023-07-20T03:36:09;13.40;99.90
20590;DHT22;10453;50.810;12.540;2023-07-20T03:40:27;13.50;99.90
20590;DHT22;10453;50.810;12.540;2023-07-20T03:44:44;13.60;99.90
20590;DHT22;10453;50.810;12.540;2023-07-20T03:49:01;13.80;99.90
20590;DHT22;10453;50.810;12.540;2023-07-20T03:53:19;14.00;99.90
20590;DHT22;10453;50.810;12.540;2023-07-20T03:57:36;14.10;99.90
20590;DHT22;10453;50.810;12.540;2023-07-20T04:01:53;14.20;99.90
20590;DHT22;10453;50.810;12.540;2023-07-20T04:06:11;14.40;99.90
20590;DHT22;10453;50.810;12.540;2023-07-20T04:10:29;14.40;99.90
20590;DHT22;10453;50.810;12.540;2023-07-20T04:14:46;14.40;99.90
20590;DHT22;10453;50.810;12.540;2023-07-20T04:19:03;14.50;99.90
20590;DHT22;10453;50.810;12.540;2023-07-20T04:23:21;14.60;99.90
20590;DHT22;10453;50.810;12.540;2023-07-20T04:27:39;14.70;99.90
20590;DHT22;10453;50.810;12.540;2023-07-20T04:31:56;14.80;99.90
20590;DHT22;10453;50.810;12.540;2023-07-20T04:36:13;14.70;99.90
20590;DHT22;10453;50.810;12.540;2023-07-20T04:40:33;14.90;99.90
20590;DHT22;10453;50.810;12.540;2023-07-20T04:44:50;15.00;99.90
20590;DHT22;10453;50.810;12.540;2023-07-20T04:49:07;15.10;99.90
20590;DHT22;10453;50.810;12.540;2023-07-20T04:53:25;15.10;99.90
20590;DHT22;10453;50.810;12.540;2023-07-20T04:57:42;15.10;99.90
20590;DHT22;10453;50.810;12.540;2023-07-20T05:01:59;15.20;99.90
20590;DHT22;10453;50.810;12.540;2023-07-20T05:06:16;15.40;99.90
20590;DHT22;10453;50.810;12.540;2023-07-20T05:10:34;15.40;99.90
20590;DHT22;10453;50.810;12.540;2023-07-20T05:14:51;15.40;99.90
20590;DHT22;10453;50.810;12.540;2023-07-20T05:19:08;15.30;99.90
20590;DHT22;10453;50.810;12.540;2023-07-20T05:23:25;15.30;99.90
20590;DHT22;10453;50.810;12.540;2023-07-20T05:27:43;15.20;99.90
20590;DHT22;10453;50.810;12.540;2023-07-20T05:32:00;15.20;99.90
20590;DHT22;10453;50.810;12.540;2023-07-20T05:36:17;15.30;99.90
20590;DHT22;10453;50.810;12.540;2023-07-20T05:40:37;15.50;99.90
20590;DHT22;10453;50.810;12.540;2023-07-20T05:44:55;15.60;99.90
20590;DHT22;10453;50.810;12.540;2023-07-20T05:49:12;15.50;99.90
20590;DHT22;10453;50.810;12.540;2023-07-20T05:53:29;15.50;99.90
20590;DHT22;10453;50.810;12.540;2023-07-20T05:57:46;15.50;99.90
20590;DHT22;10453;50.810;12.540;2023-07-20T06:02:05;15.90;99.90
20590;DHT22;10453;50.810;12.540;2023-07-20T06:06:22;16.00;99.90
20590;DHT22;10453;50.810;12.540;2023-07-20T06:10:40;15.90;99.90
20590;DHT22;10453;50.810;12.540;2023-07-20T06:15:03;16.10;99.90
20590;DHT22;10453;50.810;12.540;2023-07-20T06:19:21;16.10;99.90
20590;DHT22;10453;50.810;12.540;2023-07-20T06:23:40;16.10;99.90
20590;DHT22;10453;50.810;12.540;2023-07-20T06:27:57;16.10;99.90
20590;DHT22;10453;50.810;12.540;2023-07-20T06:32:14;16.30;99.90
20590;DHT22;10453;50.810;12.540;2023-07-20T06:36:32;16.40;99.90
20590;DHT22;10453;50.810;12.540;2023-07-20T06:40:50;16.50;99.90
20590;DHT22;10453;50.810;12.540;2023-07-20T06:45:08;16.50;99.90
20590;DHT22;10453;50.810;12.540;2023-07-20T06:49:26;16.60;99.90
20590;DHT22;10453;50.810;12.540;2023-07-20T06:53:44;16.30;99.90
20590;DHT22;10453;50.810;12.540;2023-07-20T06:58:01;16.10;99.90
20590;DHT22;10453;50.810;12.540;2023-07-20T07:02:23;15.90;99.90
20590;DHT22;10453;50.810;12.540;2023-07-20T07:06:41;16.10;99.90
20590;DHT22;10453;50.810;12.540;2023-07-20T07:10:59;16.50;99.90
20590;DHT22;10453;50.810;12.540;2023-07-20T07:15:16;17.00;99.90
20590;DHT22;10453;50.810;12.540;2023-07-20T07:19:33;17.70;99.90
20590;DHT22;10453;50.810;12.540;2023-07-20T07:23:51;18.10;99.90
20590;DHT22;10453;50.810;12.540;2023-07-20T07:28:10;18.10;99.90
20590;DHT22;10453;50.810;12.540;2023-07-20T07:32:27;17.80;99.90
20590;DHT22;10453;50.810;12.540;2023-07-20T07:36:44;18.30;99.90
20590;DHT22;10453;50.810;12.540;2023-07-20T07:41:02;18.00;99.90
20590;DHT22;10453;50.810;12.540;2023-07-20T07:45:19;18.20;99.90
20590;DHT22;10453;50.810;12.540;2023-07-20T07:49:36;18.30;99.90
20590;DHT22;10453;50.810;12.540;2023-07-20T07:53:54;18.70;99.90
20590;DHT22;10453;50.810;12.540;2023-07-20T07:58:11;18.90;99.90
20590;DHT22;10453;50.810;12.540;2023-07-20T08:02:28;20.00;99.90
20590;DHT22;10453;50.810;12.540;2023-07-20T08:06:46;20.00;99.90
20590;DHT22;10453;50.810;12.540;2023-07-20T08:11:04;19.30;99.90
20590;DHT22;10453;50.810;12.540;2023-07-20T08:15:24;19.40;99.90
20590;DHT22;10453;50.810;12.540;2023-07-20T08:19:41;20.20;99.90
20590;DHT22;10453;50.810;12.540;2023-07-20T08:23:59;21.30;99.90
20590;DHT22;10453;50.810;12.540;2023-07-20T08:28:16;20.30;99.90
20590;DHT22;10453;50.810;12.540;2023-07-20T08:32:35;21.70;99.90
20590;DHT22;10453;50.810;12.540;2023-07-20T08:36:52;21.80;99.90
20590;DHT22;10453;50.810;12.540;2023-07-20T08:41:09;21.40;99.90
20590;DHT22;10453;50.810;12.540;2023-07-20T08:45:27;21.70;99.90
20590;DHT22;10453;50.810;12.540;2023-07-20T08:49:49;20.20;99.90
20590;DHT22;10453;50.810;12.540;2023-07-20T08:54:06;21.70;99.90
20590;DHT22;10453;50.810;12.540;2023-07-20T08:58:25;22.70;99.90
20590;DHT22;10453;50.810;12.540;2023-07-20T09:02:43;22.60;99.90
20590;DHT22;10453;50.810;12.540;2023-07-20T09:07:02;21.70;99.90
20590;DHT22;10453;50.810;12.540;2023-07-20T09:11:19;22.00;99.90
20590;DHT22;10453;50.810;12.540;2023-07-20T09:15:36;21.00;99.90
20590;DHT22;10453;50.810;12.540;2023-07-20T09:19:54;20.00;99.90
20590;DHT22;10453;50.810;12.540;2023-07-20T09:24:12;19.80;99.90
20590;DHT22;10453;50.810;12.540;2023-07-20T09:28:30;20.30;99.90
20590;DHT22;10453;50.810;12.540;2023-07-20T09:32:51;20.60;99.90
20590;DHT22;10453;50.810;12.540;2023-07-20T09:37:10;22.00;99.90
20590;DHT22;10453;50.810;12.540;2023-07-20T09:41:28;22.00;99.90
20590;DHT22;10453;50.810;12.540;2023-07-20T09:45:48;21.80;99.90
20590;DHT22;10453;50.810;12.540;2023-07-20T09:50:09;21.20;99.90
20590;DHT22;10453;50.810;12.540;2023-07-20T09:54:31;21.30;99.90
20590;DHT22;10453;50.810;12.540;2023-07-20T09:58:49;20.90;99.90
20590;DHT22;10453;50.810;12.540;2023-07-20T10:03:06;20.90;99.90
20590;DHT22;10453;50.810;12.540;2023-07-20T10:07:27;21.00;99.90
20590;DHT22;10453;50.810;12.540;2023-07-20T10:11:49;20.70;99.90
20590;DHT22;10453;50.810;12.540;2023-07-20T10:16:32;20.20;99.90
20590;DHT22;10453;50.810;12.540;2023-07-20T10:20:51;20.00;99.90
20590;DHT22;10453;50.810;12.540;2023-07-20T10:25:14;20.00;99.90
20590;DHT22;10453;50.810;12.540;2023-07-20T10:29:32;20.20;99.90
20590;DHT22;10453;50.810;12.540;2023-07-20T10:33:50;20.40;99.90
20590;DHT22;10453;50.810;12.540;2023-07-20T10:38:09;20.70;99.90
20590;DHT22;10453;50.810;12.540;2023-07-20T10:42:33;21.50;99.90
20590;DHT22;10453;50.810;12.540;2023-07-20T10:46:50;22.80;99.90
20590;DHT22;10453;50.810;12.540;2023-07-20T10:51:20;23.10;99.90
20590;DHT22;10453;50.810;12.540;2023-07-20T10:55:38;22.80;99.90
20590;DHT22;10453;50.810;12.540;2023-07-20T11:00:11;22.50;99.90
20590;DHT22;10453;50.810;12.540;2023-07-20T11:04:45;22.10;99.90
20590;DHT22;10453;50.810;12.540;2023-07-20T11:09:12;21.80;99.90
20590;DHT22;10453;50.810;12.540;2023-07-20T11:13:33;22.00;99.90
20590;DHT22;10453;50.810;12.540;2023-07-20T11:17:51;23.20;99.90
20590;DHT22;10453;50.810;12.540;2023-07-20T11:22:09;25.40;99.90
20590;DHT22;10453;50.810;12.540;2023-07-20T11:26:27;27.30;99.90
20590;DHT22;10453;50.810;12.540;2023-07-20T11:30:44;25.90;99.90
20590;DHT22;10453;50.810;12.540;2023-07-20T11:35:01;25.50;99.90
20590;DHT22;10453;50.810;12.540;2023-07-20T11:39:19;24.10;99.90
20590;DHT22;10453;50.810;12.540;2023-07-20T11:43:39;22.00;99.90
20590;DHT22;10453;50.810;12.540;2023-07-20T11:47:58;20.30;99.90
20590;DHT22;10453;50.810;12.540;2023-07-20T11:52:16;18.90;99.90
20590;DHT22;10453;50.810;12.540;2023-07-20T11:56:34;17.30;99.90
20590;DHT22;10453;50.810;12.540;2023-07-20T12:00:51;16.80;99.90
20590;DHT22;10453;50.810;12.540;2023-07-20T12:05:09;16.90;99.90
20590;DHT22;10453;50.810;12.540;2023-07-20T12:09:26;17.30;99.90
20590;DHT22;10453;50.810;12.540;2023-07-20T12:13:58;18.10;99.90
20590;DHT22;10453;50.810;12.540;2023-07-20T12:18:35;19.10;99.90
20590;DHT22;10453;50.810;12.540;2023-07-20T12:22:56;21.10;99.90
20590;DHT22;10453;50.810;12.540;2023-07-20T12:27:14;21.90;99.90
20590;DHT22;10453;50.810;12.540;2023-07-20T12:31:36;22.50;99.90
20590;DHT22;10453;50.810;12.540;2023-07-20T12:35:54;21.70;99.90
20590;DHT22;10453;50.810;12.540;2023-07-20T12:40:13;22.00;99.90
20590;DHT22;10453;50.810;12.540;2023-07-20T12:44:30;21.10;99.90
20590;DHT22;10453;50.810;12.540;2023-07-20T12:48:47;21.20;99.90
20590;DHT22;10453;50.810;12.540;2023-07-20T12:53:06;22.60;99.90
20590;DHT22;10453;50.810;12.540;2023-07-20T12:57:23;22.10;99.90
20590;DHT22;10453;50.810;12.540;2023-07-20T13:01:41;20.80;99.90
20590;DHT22;10453;50.810;12.540;2023-07-20T13:06:01;22.20;99.90
20590;DHT22;10453;50.810;12.540;2023-07-20T13:10:21;22.20;99.90
20590;DHT22;10453;50.810;12.540;2023-07-20T13:14:38;22.10;99.90
20590;DHT22;10453;50.810;12.540;2023-07-20T13:18:55;22.40;99.90
20590;DHT22;10453;50.810;12.540;2023-07-20T13:23:13;23.00;99.90
20590;DHT22;10453;50.810;12.540;2023-07-20T13:27:30;22.90;99.90
20590;DHT22;10453;50.810;12.540;2023-07-20T13:31:49;21.70;99.90
20590;DHT22;10453;50.810;12.540;2023-07-20T13:36:08;21.60;99.90
20590;DHT22;10453;50.810;12.540;2023-07-20T13:40:26;21.40;99.90
20590;DHT22;10453;50.810;12.540;2023-07-20T13:44:43;20.60;99.90
20590;DHT22;10453;50.810;12.540;2023-07-20T13:49:00;19.80;99.90
20590;DHT22;10453;50.810;12.540;2023-07-20T13:53:18;19.80;99.90
20590;DHT22;10453;50.810;12.540;2023-07-20T13:57:38;20.30;99.90
20590;DHT22;10453;50.810;12.540;2023-07-20T14:01:55;20.50;99.90
20590;DHT22;10453;50.810;12.540;2023-07-20T14:06:15;20.10;99.90
20590;DHT22;10453;50.810;12.540;2023-07-20T14:10:34;20.20;99.90
20590;DHT22;10453;50.810;12.540;2023-07-20T14:15:11;20.00;99.90
20590;DHT22;10453;50.810;12.540;2023-07-20T14:19:29;20.10;99.90
20590;DHT22;10453;50.810;12.540;2023-07-20T14:23:50;19.80;99.90
20590;DHT22;10453;50.810;12.540;2023-07-20T14:28:10;19.60;99.90
20590;DHT22;10453;50.810;12.540;2023-07-20T14:32:27;19.90;99.90
20590;DHT22;10453;50.810;12.540;2023-07-20T14:36:45;20.20;99.90
20590;DHT22;10453;50.810;12.540;2023-07-20T14:41:03;20.20;99.90
20590;DHT22;10453;50.810;12.540;2023-07-20T14:45:20;20.60;99.90
20590;DHT22;10453;50.810;12.540;2023-07-20T14:49:38;20.40;99.90
20590;DHT22;10453;50.810;12.540;2023-07-20T14:53:55;21.60;99.90
20590;DHT22;10453;50.810;12.540;2023-07-20T14:58:12;21.70;99.90
20590;DHT22;10453;50.810;12.540;2023-07-20T15:02:29;21.50;99.90
20590;DHT22;10453;50.810;12.540;2023-07-20T15:06:47;20.90;99.90
20590;DHT22;10453;50.810;12.540;2023-07-20T15:11:04;20.90;99.90
20590;DHT22;10453;50.810;12.540;2023-07-20T15:15:22;20.70;99.90
20590;DHT22;10453;50.810;12.540;2023-07-20T15:19:39;21.00;99.90
20590;DHT22;10453;50.810;12.540;2023-07-20T15:23:58;21.30;99.90
20590;DHT22;10453;50.810;12.540;2023-07-20T15:28:15;21.40;99.90
20590;DHT22;10453;50.810;12.540;2023-07-20T15:32:32;22.60;99.90
20590;DHT22;10453;50.810;12.540;2023-07-20T15:37:10;23.80;99.90
20590;DHT22;10453;50.810;12.540;2023-07-20T15:41:27;22.10;99.90
20590;DHT22;10453;50.810;12.540;2023-07-20T15:45:47;21.80;99.90
20590;DHT22;10453;50.810;12.540;2023-07-20T15:50:09;23.40;99.90
20590;DHT22;10453;50.810;12.540;2023-07-20T15:54:26;23.20;99.90
20590;DHT22;10453;50.810;12.540;2023-07-20T15:58:44;22.40;99.90
20590;DHT22;10453;50.810;12.540;2023-07-20T16:03:01;22.50;99.90
20590;DHT22;10453;50.810;12.540;2023-07-20T16:07:18;22.20;99.90
20590;DHT22;10453;50.810;12.540;2023-07-20T16:11:36;21.70;99.90
20590;DHT22;10453;50.810;12.540;2023-07-20T16:15:54;21.70;99.90
20590;DHT22;10453;50.810;12.540;2023-07-20T16:20:12;21.60;99.90
20590;DHT22;10453;50.810;12.540;2023-07-20T16:24:29;21.10;99.90
20590;DHT22;10453;50.810;12.540;2023-07-20T16:28:48;21.00;99.90
20590;DHT22;10453;50.810;12.540;2023-07-20T16:33:05;21.30;99.90
20590;DHT22;10453;50.810;12.540;2023-07-20T16:37:23;21.30;99.90
20590;DHT22;10453;50.810;12.540;2023-07-20T16:41:43;21.30;99.90
20590;DHT22;10453;50.810;12.540;2023-07-20T16:46:05;21.30;99.90
20590;DHT22;10453;50.810;12.540;2023-07-20T16:50:26;21.50;99.90
20590;DHT22;10453;50.810;12.540;2023-07-20T16:54:43;21.40;99.90
20590;DHT22;10453;50.810;12.540;2023-07-20T16:59:00;20.90;99.90
20590;DHT22;10453;50.810;12.540;2023-07-20T17:03:17;20.70;99.90
20590;DHT22;10453;50.810;12.540;2023-07-20T17:07:36;20.40;99.90
20590;DHT22;10453;50.810;12.540;2023-07-20T17:11:54;20.40;99.90
20590;DHT22;10453;50.810;12.540;2023-07-20T17:16:11;20.30;99.90
20590;DHT22;10453;50.810;12.540;2023-07-20T17:20:28;20.20;99.90
20590;DHT22;10453;50.810;12.540;2023-07-20T17:24:49;20.10;99.90
20590;DHT22;10453;50.810;12.540;2023-07-20T17:29:09;19.90;99.90
20590;DHT22;10453;50.810;12.540;2023-07-20T17:33:26;19.90;99.90
20590;DHT22;10453;50.810;12.540;2023-07-20T17:37:44;19.80;99.90
20590;DHT22;10453;50.810;12.540;2023-07-20T17:42:04;19.60;99.90
20590;DHT22;10453;50.810;12.540;2023-07-20T17:46:41;19.40;99.90
20590;DHT22;10453;50.810;12.540;2023-07-20T17:51:01;19.40;99.90
20590;DHT22;10453;50.810;12.540;2023-07-20T17:55:19;19.50;99.90
20590;DHT22;10453;50.810;12.540;2023-07-20T17:59:36;19.50;99.90
20590;DHT22;10453;50.810;12.540;2023-07-20T18:03:59;19.40;99.90
20590;DHT22;10453;50.810;12.540;2023-07-20T18:08:16;19.10;99.90
20590;DHT22;10453;50.810;12.540;2023-07-20T18:12:33;19.00;99.90
20590;DHT22;10453;50.810;12.540;2023-07-20T18:16:52;18.80;99.90
20590;DHT22;10453;50.810;12.540;2023-07-20T18:21:09;18.60;99.90
20590;DHT22;10453;50.810;12.540;2023-07-20T18:25:28;18.50;99.90
20590;DHT22;10453;50.810;12.540;2023-07-20T18:29:46;18.50;99.90
20590;DHT22;10453;50.810;12.540;2023-07-20T18:34:03;18.40;99.90
20590;DHT22;10453;50.810;12.540;2023-07-20T18:38:20;18.30;99.90
20590;DHT22;10453;50.810;12.540;2023-07-20T18:42:38;18.00;99.90
20590;DHT22;10453;50.810;12.540;2023-07-20T18:46:57;17.70;99.90
20590;DHT22;10453;50.810;12.540;2023-07-20T18:51:14;17.50;99.90
20590;DHT22;10453;50.810;12.540;2023-07-20T18:55:32;17.20;99.90
20590;DHT22;10453;50.810;12.540;2023-07-20T18:59:50;17.00;99.90
20590;DHT22;10453;50.810;12.540;2023-07-20T19:04:07;16.80;99.90
20590;DHT22;10453;50.810;12.540;2023-07-20T19:08:25;16.60;99.90
20590;DHT22;10453;50.810;12.540;2023-07-20T19:12:42;16.40;99.90
20590;DHT22;10453;50.810;12.540;2023-07-20T19:17:00;16.20;99.90
20590;DHT22;10453;50.810;12.540;2023-07-20T19:21:17;16.00;99.90
20590;DHT22;10453;50.810;12.540;2023-07-20T19:25:37;15.90;99.90
20590;DHT22;10453;50.810;12.540;2023-07-20T19:29:55;15.70;99.90
20590;DHT22;10453;50.810;12.540;2023-07-20T19:34:12;15.50;99.90
20590;DHT22;10453;50.810;12.540;2023-07-20T19:38:30;15.30;99.90
20590;DHT22;10453;50.810;12.540;2023-07-20T19:42:47;15.20;99.90
20590;DHT22;10453;50.810;12.540;2023-07-20T19:47:07;15.00;99.90
20590;DHT22;10453;50.810;12.540;2023-07-20T19:51:24;14.80;99.90
20590;DHT22;10453;50.810;12.540;2023-07-20T19:55:44;14.70;99.90
20590;DHT22;10453;50.810;12.540;2023-07-20T20:00:04;14.40;99.90
20590;DHT22;10453;50.810;12.540;2023-07-20T20:04:25;14.30;99.90
20590;DHT22;10453;50.810;12.540;2023-07-20T20:08:45;14.20;99.90
20590;DHT22;10453;50.810;12.540;2023-07-20T20:13:03;14.20;99.90
20590;DHT22;10453;50.810;12.540;2023-07-20T20:17:21;14.10;99.90
20590;DHT22;10453;50.810;12.540;2023-07-20T20:21:39;14.00;99.90
20590;DHT22;10453;50.810;12.540;2023-07-20T20:25:56;14.00;99.90
20590;DHT22;10453;50.810;12.540;2023-07-20T20:30:14;14.00;99.90
20590;DHT22;10453;50.810;12.540;2023-07-20T20:34:32;13.90;99.90
20590;DHT22;10453;50.810;12.540;2023-07-20T20:38:49;13.80;99.90
20590;DHT22;10453;50.810;12.540;2023-07-20T20:43:07;13.70;99.90
20590;DHT22;10453;50.810;12.540;2023-07-20T20:47:25;13.50;99.90
20590;DHT22;10453;50.810;12.540;2023-07-20T20:51:44;13.40;99.90
20590;DHT22;10453;50.810;12.540;2023-07-20T20:56:01;13.40;99.90
20590;DHT22;10453;50.810;12.540;2023-07-20T21:00:19;13.40;99.90
20590;DHT22;10453;50.810;12.540;2023-07-20T21:04:37;13.40;99.90
20590;DHT22;10453;50.810;12.540;2023-07-20T21:08:54;13.20;99.90
20590;DHT22;10453;50.810;12.540;2023-07-20T21:13:12;13.10;99.90
20590;DHT22;10453;50.810;12.540;2023-07-20T21:17:34;13.00;99.90
20590;DHT22;10453;50.810;12.540;2023-07-20T21:21:52;12.90;99.90
20590;DHT22;10453;50.810;12.540;2023-07-20T21:26:09;12.90;99.90
20590;DHT22;10453;50.810;12.540;2023-07-20T21:30:26;12.90;99.90
20590;DHT22;10453;50.810;12.540;2023-07-20T21:34:44;12.90;99.90
20590;DHT22;10453;50.810;12.540;2023-07-20T21:39:02;13.00;99.90
20590;DHT22;10453;50.810;12.540;2023-07-20T21:43:19;13.00;99.90
20590;DHT22;10453;50.810;12.540;2023-07-20T21:47:36;13.00;99.90
20590;DHT22;10453;50.810;12.540;2023-07-20T21:51:54;12.90;99.90
20590;DHT22;10453;50.810;12.540;2023-07-20T21:56:11;13.00;99.90
20590;DHT22;10453;50.810;12.540;2023-07-20T22:00:28;13.10;99.90
20590;DHT22;10453;50.810;12.540;2023-07-20T22:04:46;13.10;99.90
20590;DHT22;10453;50.810;12.540;2023-07-20T22:09:03;13.10;99.90
20590;DHT22;10453;50.810;12.540;2023-07-20T22:13:21;13.20;99.90
20590;DHT22;10453;50.810;12.540;2023-07-20T22:17:39;13.10;99.90
20590;DHT22;10453;50.810;12.540;2023-07-20T22:21:56;13.30;99.90
20590;DHT22;10453;50.810;12.540;2023-07-20T22:26:14;13.40;99.90
20590;DHT22;10453;50.810;12.540;2023-07-20T22:30:32;13.40;99.90
20590;DHT22;10453;50.810;12.540;2023-07-20T22:34:49;13.30;99.90
20590;DHT22;10453;50.810;12.540;2023-07-20T22:39:06;13.20;99.90
20590;DHT22;10453;50.810;12.540;2023-07-20T22:43:24;13.20;99.90
20590;DHT22;10453;50.810;12.540;2023-07-20T22:47:43;13.20;99.90
20590;DHT22;10453;50.810;12.540;2023-07-20T22:52:00;13.20;99.90
20590;DHT22;10453;50.810;12.540;2023-07-20T22:56:18;13.30;99.90
20590;DHT22;10453;50.810;12.540;2023-07-20T23:00:35;13.40;99.90
20590;DHT22;10453;50.810;12.540;2023-07-20T23:04:52;13.40;99.90
20590;DHT22;10453;50.810;12.540;2023-07-20T23:09:10;13.50;99.90
20590;DHT22;10453;50.810;12.540;2023-07-20T23:13:28;13.40;99.90
20590;DHT22;10453;50.810;12.540;2023-07-20T23:17:45;13.30;99.90
20590;DHT22;10453;50.810;12.540;2023-07-20T23:22:05;13.20;99.90
20590;DHT22;10453;50.810;12.540;2023-07-20T23:26:22;13.10;99.90
20590;DHT22;10453;50.810;12.540;2023-07-20T23:30:45;13.00;99.90
20590;DHT22;10453;50.810;12.540;2023-07-20T23:35:05;13.00;99.90
20590;DHT22;10453;50.810;12.540;2023-07-20T23:39:23;13.00;99.90
20590;DHT22;10453;50.810;12.540;2023-07-20T23:43:40;12.90;99.90
20590;DHT22;10453;50.810;12.540;2023-07-20T23:47:58;12.90;99.90
20590;DHT22;10453;50.810;12.540;2023-07-20T23:52:15;12.80;99.90
20590;DHT22;10453;50.810;12.540;2023-07-20T23:56:35;12.80;99.90
